Texarkana Regional Webb Field
KTXK : now visible

Airfield :











YOU CAN JOIN US ON...

 
LOGIN :

Register | Disclaimer

   EN    FR    IT 

 









Legend :    VFR   Marginal VFR   IFR   Intensive IFR   Very Intensive IFR
Visi :
Ceiling :
>= 8 km
>= 3000ft
5 to 8 km
1000 to 3000 ft
1500m to 5 km
500 to 1000 ft
800 to 1500m
200 to 500 ft
< 800m
< 200 ft
Symbols :   Thunderstorms  Fog  Heavy snow  Heavy precipitations  Wind > 20 kt






- Airport Elevation : 390 ft
- IATA code : TXK


KTXK - Texarkana Regional Webb Field

CURRENT METAR :
  • 170353Z AUTO 15006KT 10SM OVC022 14/12 A2999 RMK AO2 SLP153 T01390117

EXPIRED METARs :
  • 170253Z 16006KT 10SM SCT012 OVC018 14/11 A2997 RMK AO2 SLP145 T01390111 53004
  • 170232Z 16008KT 10SM BKN012 OVC018 14/12 A2996 RMK AO2 T01390117
  • 170153Z 14008KT 10SM SCT012 OVC019 14/12 A2996 RMK AO2 SLP142 T01390117

TAF KTXK
Valid from the 17 at 00:00 until the 18 at 00:00 UTC


162320Z 1700/1724 15008KT P6SM OVC014
FM170700 15010KT P6SM BKN007
FM171400 18012G20KT P6SM OVC007
FM171900 21009KT P6SM OVC015



MET'MAP, your aeronautical weather chart ! - Copyright ORBIFLY December 2007 - Disclaimer

ORBIFLY MET'MAP TEAM :

Programming & Development : Alexandra Zaïnal
Concept & original design : Baudouin d'Aumeries
Assistance for programming : Marc-Olivier Méhu
Technical & hardware support : Manuel Goepfert

Contact : metmap@orbifly.com




SOURCES & CREDITS :

   NOAA       Earth
Advisory